sensor_id;sensor_type;location;lat;lon;timestamp;temperature;humidity
10891;DHT22;5498;50.928;11.598;2023-01-24T00:02:28;2.10;98.40
10891;DHT22;5498;50.928;11.598;2023-01-24T00:05:33;2.00;98.40
10891;DHT22;5498;50.928;11.598;2023-01-24T00:08:35;2.10;98.70
10891;DHT22;5498;50.928;11.598;2023-01-24T00:11:38;2.30;98.70
10891;DHT22;5498;50.928;11.598;2023-01-24T00:14:40;2.20;98.70
10891;DHT22;5498;50.928;11.598;2023-01-24T00:17:41;2.40;98.70
10891;DHT22;5498;50.928;11.598;2023-01-24T00:20:43;2.60;98.70
10891;DHT22;5498;50.928;11.598;2023-01-24T00:23:46;2.20;98.40
10891;DHT22;5498;50.928;11.598;2023-01-24T00:26:50;2.00;98.40
10891;DHT22;5498;50.928;11.598;2023-01-24T00:29:52;2.00;98.60
10891;DHT22;5498;50.928;11.598;2023-01-24T00:32:54;2.20;98.80
10891;DHT22;5498;50.928;11.598;2023-01-24T00:35:57;1.80;98.70
10891;DHT22;5498;50.928;11.598;2023-01-24T00:38:58;2.10;98.80
10891;DHT22;5498;50.928;11.598;2023-01-24T00:42:02;1.70;98.70
10891;DHT22;5498;50.928;11.598;2023-01-24T00:45:04;1.80;99.00
10891;DHT22;5498;50.928;11.598;2023-01-24T00:48:09;1.90;99.00
10891;DHT22;5498;50.928;11.598;2023-01-24T00:51:11;2.00;98.80
10891;DHT22;5498;50.928;11.598;2023-01-24T00:54:13;2.10;98.70
10891;DHT22;5498;50.928;11.598;2023-01-24T00:57:16;2.20;98.60
10891;DHT22;5498;50.928;11.598;2023-01-24T01:00:18;2.40;98.60
10891;DHT22;5498;50.928;11.598;2023-01-24T01:03:20;2.30;98.40
10891;DHT22;5498;50.928;11.598;2023-01-24T01:06:23;2.10;98.20
10891;DHT22;5498;50.928;11.598;2023-01-24T01:09:25;2.10;98.50
10891;DHT22;5498;50.928;11.598;2023-01-24T01:12:29;2.20;98.60
10891;DHT22;5498;50.928;11.598;2023-01-24T01:15:31;2.10;98.50
10891;DHT22;5498;50.928;11.598;2023-01-24T01:18:34;2.00;98.60
10891;DHT22;5498;50.928;11.598;2023-01-24T01:21:37;2.00;98.60
10891;DHT22;5498;50.928;11.598;2023-01-24T01:24:38;2.00;98.90
10891;DHT22;5498;50.928;11.598;2023-01-24T01:27:41;2.00;98.80
10891;DHT22;5498;50.928;11.598;2023-01-24T01:30:48;2.40;98.80
10891;DHT22;5498;50.928;11.598;2023-01-24T01:33:53;2.00;98.70
10891;DHT22;5498;50.928;11.598;2023-01-24T01:36:54;2.10;98.80
10891;DHT22;5498;50.928;11.598;2023-01-24T01:39:56;2.10;98.70
10891;DHT22;5498;50.928;11.598;2023-01-24T01:42:59;2.20;98.60
10891;DHT22;5498;50.928;11.598;2023-01-24T01:46:09;2.20;98.40
10891;DHT22;5498;50.928;11.598;2023-01-24T01:49:21;2.20;98.50
10891;DHT22;5498;50.928;11.598;2023-01-24T01:52:28;2.20;98.40
10891;DHT22;5498;50.928;11.598;2023-01-24T01:55:35;2.20;98.50
10891;DHT22;5498;50.928;11.598;2023-01-24T01:58:40;2.10;98.50
10891;DHT22;5498;50.928;11.598;2023-01-24T02:01:44;2.10;98.70
10891;DHT22;5498;50.928;11.598;2023-01-24T02:04:51;2.40;98.80
10891;DHT22;5498;50.928;11.598;2023-01-24T02:07:57;2.20;98.80
10891;DHT22;5498;50.928;11.598;2023-01-24T02:11:01;2.30;98.60
10891;DHT22;5498;50.928;11.598;2023-01-24T02:14:23;2.00;98.90
10891;DHT22;5498;50.928;11.598;2023-01-24T02:17:43;1.90;98.90
10891;DHT22;5498;50.928;11.598;2023-01-24T02:20:46;1.90;99.10
10891;DHT22;5498;50.928;11.598;2023-01-24T02:23:53;1.90;99.00
10891;DHT22;5498;50.928;11.598;2023-01-24T02:27:00;2.00;99.10
10891;DHT22;5498;50.928;11.598;2023-01-24T02:30:02;2.10;99.00
10891;DHT22;5498;50.928;11.598;2023-01-24T02:33:12;2.10;99.00
10891;DHT22;5498;50.928;11.598;2023-01-24T02:36:20;2.20;98.80
10891;DHT22;5498;50.928;11.598;2023-01-24T02:39:28;2.10;98.70
10891;DHT22;5498;50.928;11.598;2023-01-24T02:42:36;2.10;98.70
10891;DHT22;5498;50.928;11.598;2023-01-24T02:45:38;2.60;98.80
10891;DHT22;5498;50.928;11.598;2023-01-24T02:48:40;2.60;98.70
10891;DHT22;5498;50.928;11.598;2023-01-24T02:51:42;2.30;98.50
10891;DHT22;5498;50.928;11.598;2023-01-24T02:55:02;2.00;98.00
10891;DHT22;5498;50.928;11.598;2023-01-24T02:58:05;2.00;98.20
10891;DHT22;5498;50.928;11.598;2023-01-24T03:01:06;2.10;98.20
10891;DHT22;5498;50.928;11.598;2023-01-24T03:04:08;2.20;98.10
10891;DHT22;5498;50.928;11.598;2023-01-24T03:07:12;2.30;98.10
10891;DHT22;5498;50.928;11.598;2023-01-24T03:10:15;2.30;97.80
10891;DHT22;5498;50.928;11.598;2023-01-24T03:13:20;2.30;97.60
10891;DHT22;5498;50.928;11.598;2023-01-24T03:16:39;2.20;97.60
10891;DHT22;5498;50.928;11.598;2023-01-24T03:19:59;2.60;97.50
10891;DHT22;5498;50.928;11.598;2023-01-24T03:23:18;2.10;97.70
10891;DHT22;5498;50.928;11.598;2023-01-24T03:26:38;1.90;98.00
10891;DHT22;5498;50.928;11.598;2023-01-24T03:29:58;2.30;98.00
10891;DHT22;5498;50.928;11.598;2023-01-24T03:33:18;2.00;98.00
10891;DHT22;5498;50.928;11.598;2023-01-24T03:36:37;2.10;98.00
10891;DHT22;5498;50.928;11.598;2023-01-24T03:39:40;2.10;98.00
10891;DHT22;5498;50.928;11.598;2023-01-24T03:42:59;2.10;97.90
10891;DHT22;5498;50.928;11.598;2023-01-24T03:46:03;2.20;97.90
10891;DHT22;5498;50.928;11.598;2023-01-24T03:49:05;2.10;97.90
10891;DHT22;5498;50.928;11.598;2023-01-24T03:52:07;2.30;98.00
10891;DHT22;5498;50.928;11.598;2023-01-24T03:55:27;2.00;98.20
10891;DHT22;5498;50.928;11.598;2023-01-24T03:58:30;2.40;98.30
10891;DHT22;5498;50.928;11.598;2023-01-24T04:01:33;2.00;98.20
10891;DHT22;5498;50.928;11.598;2023-01-24T04:04:35;2.00;98.10
10891;DHT22;5498;50.928;11.598;2023-01-24T04:07:52;2.20;98.20
10891;DHT22;5498;50.928;11.598;2023-01-24T04:10:55;2.10;98.10
10891;DHT22;5498;50.928;11.598;2023-01-24T04:13:57;2.10;98.00
10891;DHT22;5498;50.928;11.598;2023-01-24T04:17:01;2.10;97.90
10891;DHT22;5498;50.928;11.598;2023-01-24T04:20:03;2.10;97.80
10891;DHT22;5498;50.928;11.598;2023-01-24T04:23:07;2.10;98.00
10891;DHT22;5498;50.928;11.598;2023-01-24T04:26:09;1.90;97.90
10891;DHT22;5498;50.928;11.598;2023-01-24T04:29:11;2.40;98.10
10891;DHT22;5498;50.928;11.598;2023-01-24T04:32:14;1.90;97.60
10891;DHT22;5498;50.928;11.598;2023-01-24T04:35:18;1.90;97.70
10891;DHT22;5498;50.928;11.598;2023-01-24T04:38:20;1.90;98.00
10891;DHT22;5498;50.928;11.598;2023-01-24T04:41:22;2.30;98.00
10891;DHT22;5498;50.928;11.598;2023-01-24T04:44:24;2.10;98.10
10891;DHT22;5498;50.928;11.598;2023-01-24T04:47:27;2.20;97.70
10891;DHT22;5498;50.928;11.598;2023-01-24T04:50:29;2.20;97.60
10891;DHT22;5498;50.928;11.598;2023-01-24T04:53:31;2.10;97.80
10891;DHT22;5498;50.928;11.598;2023-01-24T04:56:36;2.30;97.90
10891;DHT22;5498;50.928;11.598;2023-01-24T04:59:37;2.10;97.90
10891;DHT22;5498;50.928;11.598;2023-01-24T05:02:41;2.20;97.80
10891;DHT22;5498;50.928;11.598;2023-01-24T05:05:43;1.90;98.20
10891;DHT22;5498;50.928;11.598;2023-01-24T05:08:44;1.90;98.20
10891;DHT22;5498;50.928;11.598;2023-01-24T05:11:46;1.70;98.40
10891;DHT22;5498;50.928;11.598;2023-01-24T05:14:48;1.70;98.50
10891;DHT22;5498;50.928;11.598;2023-01-24T05:17:51;1.70;98.80
10891;DHT22;5498;50.928;11.598;2023-01-24T05:20:53;1.80;98.70
10891;DHT22;5498;50.928;11.598;2023-01-24T05:23:55;1.80;98.80
10891;DHT22;5498;50.928;11.598;2023-01-24T05:26:57;2.10;98.70
10891;DHT22;5498;50.928;11.598;2023-01-24T05:29:59;1.70;98.50
10891;DHT22;5498;50.928;11.598;2023-01-24T05:33:02;2.00;98.80
10891;DHT22;5498;50.928;11.598;2023-01-24T05:36:07;1.70;98.80
10891;DHT22;5498;50.928;11.598;2023-01-24T05:39:10;1.80;99.00
10891;DHT22;5498;50.928;11.598;2023-01-24T05:42:11;2.10;98.90
10891;DHT22;5498;50.928;11.598;2023-01-24T05:45:13;2.00;98.70
10891;DHT22;5498;50.928;11.598;2023-01-24T05:48:16;2.10;98.50
10891;DHT22;5498;50.928;11.598;2023-01-24T05:51:19;2.10;98.30
10891;DHT22;5498;50.928;11.598;2023-01-24T05:54:21;2.20;98.30
10891;DHT22;5498;50.928;11.598;2023-01-24T05:57:22;2.60;98.30
10891;DHT22;5498;50.928;11.598;2023-01-24T06:00:24;2.20;98.00
10891;DHT22;5498;50.928;11.598;2023-01-24T06:03:28;2.20;98.10
10891;DHT22;5498;50.928;11.598;2023-01-24T06:06:30;2.60;98.00
10891;DHT22;5498;50.928;11.598;2023-01-24T06:09:31;2.50;98.30
10891;DHT22;5498;50.928;11.598;2023-01-24T06:12:33;2.00;98.20
10891;DHT22;5498;50.928;11.598;2023-01-24T06:15:36;2.00;98.40
10891;DHT22;5498;50.928;11.598;2023-01-24T06:18:40;2.10;98.20
10891;DHT22;5498;50.928;11.598;2023-01-24T06:21:44;2.10;97.90
10891;DHT22;5498;50.928;11.598;2023-01-24T06:24:48;2.10;98.10
10891;DHT22;5498;50.928;11.598;2023-01-24T06:27:50;2.00;98.10
10891;DHT22;5498;50.928;11.598;2023-01-24T06:31:00;2.10;98.20
10891;DHT22;5498;50.928;11.598;2023-01-24T06:34:16;2.50;98.10
10891;DHT22;5498;50.928;11.598;2023-01-24T06:37:32;2.20;98.00
10891;DHT22;5498;50.928;11.598;2023-01-24T06:40:38;2.30;97.90
10891;DHT22;5498;50.928;11.598;2023-01-24T06:43:41;2.20;97.70
10891;DHT22;5498;50.928;11.598;2023-01-24T06:46:43;2.30;97.90
10891;DHT22;5498;50.928;11.598;2023-01-24T06:49:46;2.40;97.70
10891;DHT22;5498;50.928;11.598;2023-01-24T06:52:49;2.30;97.80
10891;DHT22;5498;50.928;11.598;2023-01-24T06:55:51;2.20;97.80
10891;DHT22;5498;50.928;11.598;2023-01-24T06:58:53;2.20;97.90
10891;DHT22;5498;50.928;11.598;2023-01-24T07:01:55;2.20;97.80
10891;DHT22;5498;50.928;11.598;2023-01-24T07:04:59;2.10;97.90
10891;DHT22;5498;50.928;11.598;2023-01-24T07:08:01;2.00;98.00
10891;DHT22;5498;50.928;11.598;2023-01-24T07:11:03;2.10;98.30
10891;DHT22;5498;50.928;11.598;2023-01-24T07:14:05;2.20;98.20
10891;DHT22;5498;50.928;11.598;2023-01-24T07:17:07;2.10;98.00
10891;DHT22;5498;50.928;11.598;2023-01-24T07:20:12;2.20;98.20
10891;DHT22;5498;50.928;11.598;2023-01-24T07:23:20;2.20;98.10
10891;DHT22;5498;50.928;11.598;2023-01-24T07:26:24;2.30;98.00
10891;DHT22;5498;50.928;11.598;2023-01-24T07:29:26;2.30;97.90
10891;DHT22;5498;50.928;11.598;2023-01-24T07:32:28;2.50;97.90
10891;DHT22;5498;50.928;11.598;2023-01-24T07:35:32;2.30;97.90
10891;DHT22;5498;50.928;11.598;2023-01-24T07:38:35;2.30;97.80
10891;DHT22;5498;50.928;11.598;2023-01-24T07:41:37;2.30;97.90
10891;DHT22;5498;50.928;11.598;2023-01-24T07:44:41;2.40;97.90
10891;DHT22;5498;50.928;11.598;2023-01-24T07:47:42;2.70;97.80
10891;DHT22;5498;50.928;11.598;2023-01-24T07:50:46;2.40;97.60
10891;DHT22;5498;50.928;11.598;2023-01-24T07:53:47;2.60;97.60
10891;DHT22;5498;50.928;11.598;2023-01-24T07:56:49;2.40;97.50
10891;DHT22;5498;50.928;11.598;2023-01-24T07:59:51;2.50;97.50
10891;DHT22;5498;50.928;11.598;2023-01-24T08:02:54;2.50;97.40
10891;DHT22;5498;50.928;11.598;2023-01-24T08:05:58;2.40;97.40
10891;DHT22;5498;50.928;11.598;2023-01-24T08:08:59;2.40;97.40
10891;DHT22;5498;50.928;11.598;2023-01-24T08:12:04;2.40;97.50
10891;DHT22;5498;50.928;11.598;2023-01-24T08:15:07;2.50;97.40
10891;DHT22;5498;50.928;11.598;2023-01-24T08:18:09;2.50;97.50
10891;DHT22;5498;50.928;11.598;2023-01-24T08:21:13;2.50;97.40
10891;DHT22;5498;50.928;11.598;2023-01-24T08:24:14;2.50;97.30
10891;DHT22;5498;50.928;11.598;2023-01-24T08:27:16;2.50;97.30
10891;DHT22;5498;50.928;11.598;2023-01-24T08:30:19;2.50;97.40
10891;DHT22;5498;50.928;11.598;2023-01-24T08:33:20;2.30;97.20
10891;DHT22;5498;50.928;11.598;2023-01-24T08:36:24;2.20;97.70
10891;DHT22;5498;50.928;11.598;2023-01-24T08:39:26;2.20;97.70
10891;DHT22;5498;50.928;11.598;2023-01-24T08:42:28;2.00;97.90
10891;DHT22;5498;50.928;11.598;2023-01-24T08:45:30;1.80;98.20
10891;DHT22;5498;50.928;11.598;2023-01-24T08:48:32;1.90;98.50
10891;DHT22;5498;50.928;11.598;2023-01-24T08:51:35;2.40;98.50
10891;DHT22;5498;50.928;11.598;2023-01-24T08:54:37;2.40;98.70
10891;DHT22;5498;50.928;11.598;2023-01-24T08:57:39;2.20;98.80
10891;DHT22;5498;50.928;11.598;2023-01-24T09:00:41;1.90;98.80
10891;DHT22;5498;50.928;11.598;2023-01-24T09:03:43;2.00;99.00
10891;DHT22;5498;50.928;11.598;2023-01-24T09:06:47;1.90;98.90
10891;DHT22;5498;50.928;11.598;2023-01-24T09:09:49;2.20;98.80
10891;DHT22;5498;50.928;11.598;2023-01-24T09:12:51;2.00;98.50
10891;DHT22;5498;50.928;11.598;2023-01-24T09:15:52;1.90;98.60
10891;DHT22;5498;50.928;11.598;2023-01-24T09:18:55;2.00;98.90
10891;DHT22;5498;50.928;11.598;2023-01-24T09:21:58;2.20;98.90
10891;DHT22;5498;50.928;11.598;2023-01-24T09:25:00;2.20;98.80
10891;DHT22;5498;50.928;11.598;2023-01-24T09:28:04;1.90;98.60
10891;DHT22;5498;50.928;11.598;2023-01-24T09:31:07;2.00;98.60
10891;DHT22;5498;50.928;11.598;2023-01-24T09:34:09;2.10;98.70
10891;DHT22;5498;50.928;11.598;2023-01-24T09:37:16;2.00;98.60
10891;DHT22;5498;50.928;11.598;2023-01-24T09:40:21;2.10;98.70
10891;DHT22;5498;50.928;11.598;2023-01-24T09:43:40;2.10;98.40
10891;DHT22;5498;50.928;11.598;2023-01-24T09:46:53;2.10;98.60
10891;DHT22;5498;50.928;11.598;2023-01-24T09:49:59;1.90;98.50
10891;DHT22;5498;50.928;11.598;2023-01-24T09:53:14;2.00;98.60
10891;DHT22;5498;50.928;11.598;2023-01-24T09:56:21;2.00;98.60
10891;DHT22;5498;50.928;11.598;2023-01-24T09:59:35;1.90;98.60
10891;DHT22;5498;50.928;11.598;2023-01-24T10:02:40;1.70;98.70
10891;DHT22;5498;50.928;11.598;2023-01-24T10:05:47;1.70;99.00
10891;DHT22;5498;50.928;11.598;2023-01-24T10:08:57;2.10;99.20
10891;DHT22;5498;50.928;11.598;2023-01-24T10:12:11;2.40;99.10
10891;DHT22;5498;50.928;11.598;2023-01-24T10:15:32;2.10;98.80
10891;DHT22;5498;50.928;11.598;2023-01-24T10:18:49;2.10;98.60
10891;DHT22;5498;50.928;11.598;2023-01-24T10:22:09;2.20;98.70
10891;DHT22;5498;50.928;11.598;2023-01-24T10:25:20;2.20;98.70
10891;DHT22;5498;50.928;11.598;2023-01-24T10:28:27;2.30;98.70
10891;DHT22;5498;50.928;11.598;2023-01-24T10:31:33;2.20;98.50
10891;DHT22;5498;50.928;11.598;2023-01-24T10:34:38;2.30;98.40
10891;DHT22;5498;50.928;11.598;2023-01-24T10:37:45;2.40;98.40
10891;DHT22;5498;50.928;11.598;2023-01-24T10:40:53;2.40;98.30
10891;DHT22;5498;50.928;11.598;2023-01-24T10:43:59;2.30;98.00
10891;DHT22;5498;50.928;11.598;2023-01-24T10:47:28;2.30;98.30
10891;DHT22;5498;50.928;11.598;2023-01-24T10:50:43;2.20;98.50
10891;DHT22;5498;50.928;11.598;2023-01-24T10:53:46;2.20;98.60
10891;DHT22;5498;50.928;11.598;2023-01-24T10:56:50;2.20;98.60
10891;DHT22;5498;50.928;11.598;2023-01-24T10:59:51;2.30;98.60
10891;DHT22;5498;50.928;11.598;2023-01-24T11:02:55;2.20;98.40
10891;DHT22;5498;50.928;11.598;2023-01-24T11:05:58;2.40;98.60
10891;DHT22;5498;50.928;11.598;2023-01-24T11:09:08;2.20;98.30
10891;DHT22;5498;50.928;11.598;2023-01-24T11:12:13;2.20;98.60
10891;DHT22;5498;50.928;11.598;2023-01-24T11:15:20;2.20;98.50
10891;DHT22;5498;50.928;11.598;2023-01-24T11:18:25;1.90;98.70
10891;DHT22;5498;50.928;11.598;2023-01-24T11:21:29;2.00;98.80
10891;DHT22;5498;50.928;11.598;2023-01-24T11:24:42;2.10;98.90
10891;DHT22;5498;50.928;11.598;2023-01-24T11:27:47;2.20;98.70
10891;DHT22;5498;50.928;11.598;2023-01-24T11:30:50;2.20;98.60
10891;DHT22;5498;50.928;11.598;2023-01-24T11:34:01;2.30;98.50
10891;DHT22;5498;50.928;11.598;2023-01-24T11:37:45;2.20;98.50
10891;DHT22;5498;50.928;11.598;2023-01-24T11:41:10;2.20;98.50
10891;DHT22;5498;50.928;11.598;2023-01-24T11:44:37;2.20;98.50
10891;DHT22;5498;50.928;11.598;2023-01-24T11:47:50;2.30;98.40
10891;DHT22;5498;50.928;11.598;2023-01-24T11:51:04;2.20;98.40
10891;DHT22;5498;50.928;11.598;2023-01-24T11:54:21;2.30;98.60
10891;DHT22;5498;50.928;11.598;2023-01-24T11:57:37;2.30;98.50
10891;DHT22;5498;50.928;11.598;2023-01-24T12:00:48;2.20;98.60
10891;DHT22;5498;50.928;11.598;2023-01-24T12:04:12;2.30;98.70
10891;DHT22;5498;50.928;11.598;2023-01-24T12:07:24;2.40;98.50
10891;DHT22;5498;50.928;11.598;2023-01-24T12:10:31;2.40;98.40
10891;DHT22;5498;50.928;11.598;2023-01-24T12:13:48;2.30;98.20
10891;DHT22;5498;50.928;11.598;2023-01-24T12:17:04;2.30;98.50
10891;DHT22;5498;50.928;11.598;2023-01-24T12:20:22;2.20;98.60
10891;DHT22;5498;50.928;11.598;2023-01-24T12:23:39;2.20;98.60
10891;DHT22;5498;50.928;11.598;2023-01-24T12:26:47;2.10;98.50
10891;DHT22;5498;50.928;11.598;2023-01-24T12:29:57;2.20;98.60
10891;DHT22;5498;50.928;11.598;2023-01-24T12:33:08;2.50;98.50
10891;DHT22;5498;50.928;11.598;2023-01-24T12:36:22;2.40;98.40
10891;DHT22;5498;50.928;11.598;2023-01-24T12:39:37;2.30;98.30
10891;DHT22;5498;50.928;11.598;2023-01-24T12:42:57;2.40;98.30
10891;DHT22;5498;50.928;11.598;2023-01-24T12:46:08;2.30;98.40
10891;DHT22;5498;50.928;11.598;2023-01-24T12:49:23;2.10;98.30
10891;DHT22;5498;50.928;11.598;2023-01-24T12:52:31;2.30;98.30
10891;DHT22;5498;50.928;11.598;2023-01-24T12:55:40;2.10;98.20
10891;DHT22;5498;50.928;11.598;2023-01-24T12:58:54;2.20;98.40
10891;DHT22;5498;50.928;11.598;2023-01-24T13:02:28;2.30;98.40
10891;DHT22;5498;50.928;11.598;2023-01-24T13:05:44;2.30;98.40
10891;DHT22;5498;50.928;11.598;2023-01-24T13:08:55;2.30;98.30
10891;DHT22;5498;50.928;11.598;2023-01-24T13:12:04;2.20;98.50
10891;DHT22;5498;50.928;11.598;2023-01-24T13:15:17;2.20;98.40
10891;DHT22;5498;50.928;11.598;2023-01-24T13:18:41;2.10;98.30
10891;DHT22;5498;50.928;11.598;2023-01-24T13:21:55;2.00;98.20
10891;DHT22;5498;50.928;11.598;2023-01-24T13:25:18;1.80;98.70
10891;DHT22;5498;50.928;11.598;2023-01-24T13:28:32;1.90;98.90
10891;DHT22;5498;50.928;11.598;2023-01-24T13:31:48;2.00;98.60
10891;DHT22;5498;50.928;11.598;2023-01-24T13:34:57;2.00;98.50
10891;DHT22;5498;50.928;11.598;2023-01-24T13:38:04;2.10;98.50
10891;DHT22;5498;50.928;11.598;2023-01-24T13:41:13;2.20;98.40
10891;DHT22;5498;50.928;11.598;2023-01-24T13:44:27;2.10;98.40
10891;DHT22;5498;50.928;11.598;2023-01-24T13:47:34;2.40;98.30
10891;DHT22;5498;50.928;11.598;2023-01-24T13:50:37;2.30;98.30
10891;DHT22;5498;50.928;11.598;2023-01-24T13:53:59;2.40;98.10
10891;DHT22;5498;50.928;11.598;2023-01-24T13:57:22;2.30;98.00
10891;DHT22;5498;50.928;11.598;2023-01-24T14:00:26;2.30;97.90
10891;DHT22;5498;50.928;11.598;2023-01-24T14:03:34;2.30;98.10
10891;DHT22;5498;50.928;11.598;2023-01-24T14:06:42;2.40;98.30
10891;DHT22;5498;50.928;11.598;2023-01-24T14:09:46;2.30;98.40
10891;DHT22;5498;50.928;11.598;2023-01-24T14:12:53;2.20;98.40
10891;DHT22;5498;50.928;11.598;2023-01-24T14:15:55;2.10;98.40
10891;DHT22;5498;50.928;11.598;2023-01-24T14:18:59;1.90;98.40
10891;DHT22;5498;50.928;11.598;2023-01-24T14:22:23;2.00;98.80
10891;DHT22;5498;50.928;11.598;2023-01-24T14:25:39;2.10;98.90
10891;DHT22;5498;50.928;11.598;2023-01-24T14:28:49;2.00;98.70
10891;DHT22;5498;50.928;11.598;2023-01-24T14:31:56;2.20;98.90
10891;DHT22;5498;50.928;11.598;2023-01-24T14:35:12;2.40;98.70
10891;DHT22;5498;50.928;11.598;2023-01-24T14:38:18;2.30;98.60
10891;DHT22;5498;50.928;11.598;2023-01-24T14:41:22;2.40;98.40
10891;DHT22;5498;50.928;11.598;2023-01-24T14:44:25;2.40;98.30
10891;DHT22;5498;50.928;11.598;2023-01-24T14:47:28;2.50;98.40
10891;DHT22;5498;50.928;11.598;2023-01-24T14:50:33;2.60;98.30
10891;DHT22;5498;50.928;11.598;2023-01-24T14:53:35;2.70;98.20
10891;DHT22;5498;50.928;11.598;2023-01-24T14:56:40;2.60;97.80
10891;DHT22;5498;50.928;11.598;2023-01-24T14:59:42;2.70;98.00
10891;DHT22;5498;50.928;11.598;2023-01-24T15:02:52;2.60;97.80
10891;DHT22;5498;50.928;11.598;2023-01-24T15:06:00;2.70;97.90
10891;DHT22;5498;50.928;11.598;2023-01-24T15:09:03;2.20;98.10
10891;DHT22;5498;50.928;11.598;2023-01-24T15:12:23;2.20;98.40
10891;DHT22;5498;50.928;11.598;2023-01-24T15:15:27;2.40;98.50
10891;DHT22;5498;50.928;11.598;2023-01-24T15:18:41;2.30;98.20
10891;DHT22;5498;50.928;11.598;2023-01-24T15:21:46;2.40;98.20
10891;DHT22;5498;50.928;11.598;2023-01-24T15:24:50;2.50;98.20
10891;DHT22;5498;50.928;11.598;2023-01-24T15:27:55;2.60;98.20
10891;DHT22;5498;50.928;11.598;2023-01-24T15:30:58;2.60;98.00
10891;DHT22;5498;50.928;11.598;2023-01-24T15:34:01;2.70;98.00
10891;DHT22;5498;50.928;11.598;2023-01-24T15:37:04;2.70;97.80
10891;DHT22;5498;50.928;11.598;2023-01-24T15:40:14;2.30;97.60
10891;DHT22;5498;50.928;11.598;2023-01-24T15:43:25;2.50;98.20
10891;DHT22;5498;50.928;11.598;2023-01-24T15:46:53;2.60;98.20
10891;DHT22;5498;50.928;11.598;2023-01-24T15:50:20;2.70;98.00
10891;DHT22;5498;50.928;11.598;2023-01-24T15:53:42;2.70;97.90
10891;DHT22;5498;50.928;11.598;2023-01-24T15:56:44;2.70;97.90
10891;DHT22;5498;50.928;11.598;2023-01-24T15:59:49;2.70;97.80
10891;DHT22;5498;50.928;11.598;2023-01-24T16:02:52;2.70;97.70
10891;DHT22;5498;50.928;11.598;2023-01-24T16:05:55;2.70;97.50
10891;DHT22;5498;50.928;11.598;2023-01-24T16:08:57;2.70;97.50
10891;DHT22;5498;50.928;11.598;2023-01-24T16:12:00;2.70;97.70
10891;DHT22;5498;50.928;11.598;2023-01-24T16:15:04;2.70;97.70
10891;DHT22;5498;50.928;11.598;2023-01-24T16:18:08;2.60;97.50
10891;DHT22;5498;50.928;11.598;2023-01-24T16:21:11;2.60;97.70
10891;DHT22;5498;50.928;11.598;2023-01-24T16:24:13;2.70;97.70
10891;DHT22;5498;50.928;11.598;2023-01-24T16:27:15;2.70;97.80
10891;DHT22;5498;50.928;11.598;2023-01-24T16:30:20;2.70;97.70
10891;DHT22;5498;50.928;11.598;2023-01-24T16:33:23;2.70;97.70
10891;DHT22;5498;50.928;11.598;2023-01-24T16:36:25;2.60;97.40
10891;DHT22;5498;50.928;11.598;2023-01-24T16:39:27;2.50;97.60
10891;DHT22;5498;50.928;11.598;2023-01-24T16:42:29;2.60;97.90
10891;DHT22;5498;50.928;11.598;2023-01-24T16:45:32;2.60;97.90
10891;DHT22;5498;50.928;11.598;2023-01-24T16:48:35;2.60;98.00
10891;DHT22;5498;50.928;11.598;2023-01-24T16:51:36;2.70;97.80
10891;DHT22;5498;50.928;11.598;2023-01-24T16:54:38;2.80;97.40
10891;DHT22;5498;50.928;11.598;2023-01-24T16:57:40;2.40;97.70
10891;DHT22;5498;50.928;11.598;2023-01-24T17:00:43;2.50;97.70
10891;DHT22;5498;50.928;11.598;2023-01-24T17:03:49;2.60;97.50
10891;DHT22;5498;50.928;11.598;2023-01-24T17:06:51;2.60;97.40
10891;DHT22;5498;50.928;11.598;2023-01-24T17:09:54;2.50;97.30
10891;DHT22;5498;50.928;11.598;2023-01-24T17:12:56;2.60;97.40
10891;DHT22;5498;50.928;11.598;2023-01-24T17:16:04;2.20;97.50
10891;DHT22;5498;50.928;11.598;2023-01-24T17:19:06;2.20;97.80
10891;DHT22;5498;50.928;11.598;2023-01-24T17:22:08;2.20;97.90
10891;DHT22;5498;50.928;11.598;2023-01-24T17:25:10;2.30;97.80
10891;DHT22;5498;50.928;11.598;2023-01-24T17:28:12;2.30;97.50
10891;DHT22;5498;50.928;11.598;2023-01-24T17:31:16;2.40;97.50
10891;DHT22;5498;50.928;11.598;2023-01-24T17:34:19;2.20;97.30
10891;DHT22;5498;50.928;11.598;2023-01-24T17:37:21;2.30;97.30
10891;DHT22;5498;50.928;11.598;2023-01-24T17:40:23;2.00;97.10
10891;DHT22;5498;50.928;11.598;2023-01-24T17:43:25;2.10;97.50
10891;DHT22;5498;50.928;11.598;2023-01-24T17:46:29;2.20;97.50
10891;DHT22;5498;50.928;11.598;2023-01-24T17:49:31;2.30;97.40
10891;DHT22;5498;50.928;11.598;2023-01-24T17:52:33;2.40;97.10
10891;DHT22;5498;50.928;11.598;2023-01-24T17:55:35;2.30;97.20
10891;DHT22;5498;50.928;11.598;2023-01-24T17:58:37;2.40;97.10
10891;DHT22;5498;50.928;11.598;2023-01-24T18:01:40;2.00;96.60
10891;DHT22;5498;50.928;11.598;2023-01-24T18:04:42;2.00;97.20
10891;DHT22;5498;50.928;11.598;2023-01-24T18:07:44;1.60;97.10
10891;DHT22;5498;50.928;11.598;2023-01-24T18:10:46;2.10;97.20
10891;DHT22;5498;50.928;11.598;2023-01-24T18:13:48;2.00;97.30
10891;DHT22;5498;50.928;11.598;2023-01-24T18:16:51;1.80;97.40
10891;DHT22;5498;50.928;11.598;2023-01-24T18:19:53;1.80;97.40
10891;DHT22;5498;50.928;11.598;2023-01-24T18:22:56;1.90;97.50
10891;DHT22;5498;50.928;11.598;2023-01-24T18:25:59;1.50;97.20
10891;DHT22;5498;50.928;11.598;2023-01-24T18:29:01;2.00;97.80
10891;DHT22;5498;50.928;11.598;2023-01-24T18:32:05;1.50;97.50
10891;DHT22;5498;50.928;11.598;2023-01-24T18:35:07;1.70;97.80
10891;DHT22;5498;50.928;11.598;2023-01-24T18:38:10;1.70;97.70
10891;DHT22;5498;50.928;11.598;2023-01-24T18:41:12;2.10;97.70
10891;DHT22;5498;50.928;11.598;2023-01-24T18:44:14;1.90;97.50
10891;DHT22;5498;50.928;11.598;2023-01-24T18:47:18;2.30;97.40
10891;DHT22;5498;50.928;11.598;2023-01-24T18:50:20;1.90;97.30
10891;DHT22;5498;50.928;11.598;2023-01-24T18:53:22;1.90;97.00
10891;DHT22;5498;50.928;11.598;2023-01-24T18:56:23;1.90;97.00
10891;DHT22;5498;50.928;11.598;2023-01-24T18:59:26;1.70;97.10
10891;DHT22;5498;50.928;11.598;2023-01-24T19:02:30;1.80;97.10
10891;DHT22;5498;50.928;11.598;2023-01-24T19:05:32;1.60;97.10
10891;DHT22;5498;50.928;11.598;2023-01-24T19:08:35;1.70;97.30
10891;DHT22;5498;50.928;11.598;2023-01-24T19:11:38;1.80;97.30
10891;DHT22;5498;50.928;11.598;2023-01-24T19:14:40;2.30;97.40
10891;DHT22;5498;50.928;11.598;2023-01-24T19:17:48;1.70;97.20
10891;DHT22;5498;50.928;11.598;2023-01-24T19:20:50;1.80;97.50
10891;DHT22;5498;50.928;11.598;2023-01-24T19:23:52;1.60;97.30
10891;DHT22;5498;50.928;11.598;2023-01-24T19:26:54;1.70;97.60
10891;DHT22;5498;50.928;11.598;2023-01-24T19:29:56;1.20;98.00
10891;DHT22;5498;50.928;11.598;2023-01-24T19:32:59;1.40;98.20
10891;DHT22;5498;50.928;11.598;2023-01-24T19:36:03;1.50;98.00
10891;DHT22;5498;50.928;11.598;2023-01-24T19:39:06;1.40;97.90
10891;DHT22;5498;50.928;11.598;2023-01-24T19:42:11;1.80;97.90
10891;DHT22;5498;50.928;11.598;2023-01-24T19:45:13;1.60;97.90
10891;DHT22;5498;50.928;11.598;2023-01-24T19:48:17;1.70;97.80
10891;DHT22;5498;50.928;11.598;2023-01-24T19:51:19;1.80;97.70
10891;DHT22;5498;50.928;11.598;2023-01-24T19:54:21;1.70;97.60